sensor_id;sensor_type;location;lat;lon;timestamp;pressure;altitude;pressure_sealevel;temperature;humidity
48862;BME280;34681;49.188;-0.374;2023-07-24T00:01:51;100320.81;;;21.36;67.19
48862;BME280;34681;49.188;-0.374;2023-07-24T00:04:17;100321.69;;;21.36;67.45
48862;BME280;34681;49.188;-0.374;2023-07-24T00:06:42;100313.78;;;21.26;67.40
48862;BME280;34681;49.188;-0.374;2023-07-24T00:09:07;100307.38;;;21.26;67.18
48862;BME280;34681;49.188;-0.374;2023-07-24T00:11:33;100303.16;;;21.17;67.34
48862;BME280;34681;49.188;-0.374;2023-07-24T00:13:58;100308.91;;;21.22;67.41
48862;BME280;34681;49.188;-0.374;2023-07-24T00:16:24;100311.69;;;21.22;67.42
48862;BME280;34681;49.188;-0.374;2023-07-24T00:18:49;100309.53;;;21.24;67.33
48862;BME280;34681;49.188;-0.374;2023-07-24T00:21:14;100309.97;;;21.27;67.25
48862;BME280;34681;49.188;-0.374;2023-07-24T00:23:40;100310.59;;;21.29;67.20
48862;BME280;34681;49.188;-0.374;2023-07-24T00:26:05;100307.97;;;21.35;67.44
48862;BME280;34681;49.188;-0.374;2023-07-24T00:28:32;100315.47;;;21.34;67.34
48862;BME280;34681;49.188;-0.374;2023-07-24T00:30:57;100316.78;;;21.31;67.20
48862;BME280;34681;49.188;-0.374;2023-07-24T00:33:22;100306.97;;;21.22;67.08
48862;BME280;34681;49.188;-0.374;2023-07-24T00:35:48;100311.91;;;21.27;67.18
48862;BME280;34681;49.188;-0.374;2023-07-24T00:38:13;100312.28;;;21.30;67.17
48862;BME280;34681;49.188;-0.374;2023-07-24T00:40:38;100309.75;;;21.29;67.15
48862;BME280;34681;49.188;-0.374;2023-07-24T00:43:04;100303.09;;;21.30;67.41
48862;BME280;34681;49.188;-0.374;2023-07-24T00:45:29;100303.94;;;21.30;67.23
48862;BME280;34681;49.188;-0.374;2023-07-24T00:47:55;100310.97;;;21.33;67.12
48862;BME280;34681;49.188;-0.374;2023-07-24T00:50:21;100310.59;;;21.29;67.19
48862;BME280;34681;49.188;-0.374;2023-07-24T00:52:46;100306.72;;;21.30;67.12
48862;BME280;34681;49.188;-0.374;2023-07-24T00:55:13;100307.19;;;21.27;67.12
48862;BME280;34681;49.188;-0.374;2023-07-24T00:57:40;100302.25;;;21.29;67.50
48862;BME280;34681;49.188;-0.374;2023-07-24T01:00:06;100316.41;;;21.28;67.23
48862;BME280;34681;49.188;-0.374;2023-07-24T01:02:32;100307.81;;;21.29;67.20
48862;BME280;34681;49.188;-0.374;2023-07-24T01:04:57;100299.47;;;21.29;67.19
48862;BME280;34681;49.188;-0.374;2023-07-24T01:07:23;100305.66;;;21.31;66.97
48862;BME280;34681;49.188;-0.374;2023-07-24T01:09:49;100300.94;;;21.32;67.04
48862;BME280;34681;49.188;-0.374;2023-07-24T01:15:08;100303.09;;;21.30;67.14
48862;BME280;34681;49.188;-0.374;2023-07-24T01:17:39;100303.34;;;21.28;67.28
48862;BME280;34681;49.188;-0.374;2023-07-24T01:20:09;100302.66;;;21.26;66.89
48862;BME280;34681;49.188;-0.374;2023-07-24T01:22:48;100290.53;;;21.21;67.00
48862;BME280;34681;49.188;-0.374;2023-07-24T01:25:28;100298.25;;;21.19;67.21
48862;BME280;34681;49.188;-0.374;2023-07-24T01:27:56;100305.72;;;21.18;67.35
48862;BME280;34681;49.188;-0.374;2023-07-24T01:30:22;100303.59;;;21.20;67.31
48862;BME280;34681;49.188;-0.374;2023-07-24T01:32:48;100294.59;;;21.18;67.24
48862;BME280;34681;49.188;-0.374;2023-07-24T01:35:14;100293.34;;;21.14;67.42
48862;BME280;34681;49.188;-0.374;2023-07-24T01:37:40;100291.66;;;21.13;67.25
48862;BME280;34681;49.188;-0.374;2023-07-24T01:40:07;100293.19;;;21.09;67.37
48862;BME280;34681;49.188;-0.374;2023-07-24T01:42:34;100282.91;;;21.10;67.24
48862;BME280;34681;49.188;-0.374;2023-07-24T01:45:02;100286.75;;;21.09;67.34
48862;BME280;34681;49.188;-0.374;2023-07-24T01:47:28;100286.75;;;21.09;67.46
48862;BME280;34681;49.188;-0.374;2023-07-24T01:49:55;100290.19;;;21.11;67.65
48862;BME280;34681;49.188;-0.374;2023-07-24T01:52:20;100297.88;;;21.09;67.35
48862;BME280;34681;49.188;-0.374;2023-07-24T01:54:46;100293.41;;;21.08;67.38
48862;BME280;34681;49.188;-0.374;2023-07-24T01:57:11;100287.97;;;20.94;67.57
48862;BME280;34681;49.188;-0.374;2023-07-24T01:59:36;100291.38;;;20.96;67.53
48862;BME280;34681;49.188;-0.374;2023-07-24T02:02:02;100286.19;;;21.00;67.35
48862;BME280;34681;49.188;-0.374;2023-07-24T02:04:27;100297.53;;;20.98;67.60
48862;BME280;34681;49.188;-0.374;2023-07-24T02:06:52;100303.09;;;20.98;67.44
48862;BME280;34681;49.188;-0.374;2023-07-24T02:09:18;100301.63;;;20.96;67.66
48862;BME280;34681;49.188;-0.374;2023-07-24T02:11:44;100300.13;;;20.93;67.71
48862;BME280;34681;49.188;-0.374;2023-07-24T02:14:13;100300.78;;;20.95;67.72
48862;BME280;34681;49.188;-0.374;2023-07-24T02:16:38;100297.59;;;20.92;67.89
48862;BME280;34681;49.188;-0.374;2023-07-24T02:19:04;100292.44;;;20.95;67.77
48862;BME280;34681;49.188;-0.374;2023-07-24T02:21:29;100298.84;;;20.96;67.64
48862;BME280;34681;49.188;-0.374;2023-07-24T02:23:54;100300.31;;;20.98;67.85
48862;BME280;34681;49.188;-0.374;2023-07-24T02:26:20;100293.91;;;20.98;67.67
48862;BME280;34681;49.188;-0.374;2023-07-24T02:28:45;100293.72;;;20.93;67.93
48862;BME280;34681;49.188;-0.374;2023-07-24T02:31:11;100287.53;;;20.91;67.67
48862;BME280;34681;49.188;-0.374;2023-07-24T02:33:36;100279.66;;;20.88;67.95
48862;BME280;34681;49.188;-0.374;2023-07-24T02:36:02;100288.00;;;20.88;67.81
48862;BME280;34681;49.188;-0.374;2023-07-24T02:38:27;100282.22;;;20.89;68.14
48862;BME280;34681;49.188;-0.374;2023-07-24T02:40:53;100274.34;;;20.86;68.01
48862;BME280;34681;49.188;-0.374;2023-07-24T02:43:18;100275.03;;;20.75;67.97
48862;BME280;34681;49.188;-0.374;2023-07-24T02:45:43;100275.22;;;20.80;68.35
48862;BME280;34681;49.188;-0.374;2023-07-24T02:48:09;100284.81;;;20.84;68.06
48862;BME280;34681;49.188;-0.374;2023-07-24T02:50:34;100283.75;;;20.85;68.03
48862;BME280;34681;49.188;-0.374;2023-07-24T02:53:00;100279.53;;;20.76;68.15
48862;BME280;34681;49.188;-0.374;2023-07-24T02:55:25;100271.66;;;20.73;68.62
48862;BME280;34681;49.188;-0.374;2023-07-24T02:57:51;100266.09;;;20.73;68.15
48862;BME280;34681;49.188;-0.374;2023-07-24T03:00:16;100266.53;;;20.70;68.41
48862;BME280;34681;49.188;-0.374;2023-07-24T03:02:42;100275.03;;;20.75;68.38
48862;BME280;34681;49.188;-0.374;2023-07-24T03:05:07;100265.72;;;20.63;68.39
48862;BME280;34681;49.188;-0.374;2023-07-24T03:07:33;100269.78;;;20.60;68.42
48862;BME280;34681;49.188;-0.374;2023-07-24T03:09:58;100267.66;;;20.62;68.51
48862;BME280;34681;49.188;-0.374;2023-07-24T03:12:24;100263.38;;;20.60;68.55
48862;BME280;34681;49.188;-0.374;2023-07-24T03:14:50;100266.16;;;20.60;68.65
48862;BME280;34681;49.188;-0.374;2023-07-24T03:17:15;100266.59;;;20.63;68.60
48862;BME280;34681;49.188;-0.374;2023-07-24T03:19:41;100275.09;;;20.68;69.02
48862;BME280;34681;49.188;-0.374;2023-07-24T03:22:06;100274.66;;;20.71;68.42
48862;BME280;34681;49.188;-0.374;2023-07-24T03:24:31;100267.78;;;20.74;68.31
48862;BME280;34681;49.188;-0.374;2023-07-24T03:26:57;100269.72;;;20.73;68.63
48862;BME280;34681;49.188;-0.374;2023-07-24T03:29:22;100271.25;;;20.69;68.47
48862;BME280;34681;49.188;-0.374;2023-07-24T03:31:47;100266.53;;;20.70;68.77
48862;BME280;34681;49.188;-0.374;2023-07-24T03:34:13;100270.78;;;20.72;68.43
48862;BME280;34681;49.188;-0.374;2023-07-24T03:36:38;100272.31;;;20.68;68.62
48862;BME280;34681;49.188;-0.374;2023-07-24T03:39:06;100275.53;;;20.65;68.34
48862;BME280;34681;49.188;-0.374;2023-07-24T03:41:32;100263.56;;;20.65;68.69
48862;BME280;34681;49.188;-0.374;2023-07-24T03:43:57;100265.31;;;20.59;69.12
48862;BME280;34681;49.188;-0.374;2023-07-24T03:46:23;100251.66;;;20.58;69.37
48862;BME280;34681;49.188;-0.374;2023-07-24T03:48:48;100261.53;;;20.54;69.02
48862;BME280;34681;49.188;-0.374;2023-07-24T03:51:15;100270.25;;;20.57;69.03
48862;BME280;34681;49.188;-0.374;2023-07-24T03:53:41;100267.72;;;20.49;69.18
48862;BME280;34681;49.188;-0.374;2023-07-24T03:56:06;100274.16;;;20.50;69.14
48862;BME280;34681;49.188;-0.374;2023-07-24T03:58:32;100263.66;;;20.52;69.24
48862;BME280;34681;49.188;-0.374;2023-07-24T04:00:57;100258.28;;;20.57;69.25
48862;BME280;34681;49.188;-0.374;2023-07-24T04:03:22;100253.56;;;20.57;69.18
48862;BME280;34681;49.188;-0.374;2023-07-24T04:05:48;100254.66;;;20.56;68.90
48862;BME280;34681;49.188;-0.374;2023-07-24T04:08:13;100250.22;;;20.48;69.01
48862;BME280;34681;49.188;-0.374;2023-07-24T04:10:39;100250.44;;;20.47;69.04
48862;BME280;34681;49.188;-0.374;2023-07-24T04:13:04;100256.00;;;20.40;69.06
48862;BME280;34681;49.188;-0.374;2023-07-24T04:15:29;100253.03;;;20.35;69.54
48862;BME280;34681;49.188;-0.374;2023-07-24T04:17:55;100255.38;;;20.45;69.62
48862;BME280;34681;49.188;-0.374;2023-07-24T04:20:20;100255.13;;;20.53;69.30
48862;BME280;34681;49.188;-0.374;2023-07-24T04:22:45;100257.19;;;20.58;69.12
48862;BME280;34681;49.188;-0.374;2023-07-24T04:25:11;100257.03;;;20.53;68.84
48862;BME280;34681;49.188;-0.374;2023-07-24T04:27:36;100252.75;;;20.50;68.76
48862;BME280;34681;49.188;-0.374;2023-07-24T04:30:01;100255.97;;;20.54;68.82
48862;BME280;34681;49.188;-0.374;2023-07-24T04:32:27;100246.97;;;20.52;68.93
48862;BME280;34681;49.188;-0.374;2023-07-24T04:34:53;100252.78;;;20.43;68.75
48862;BME280;34681;49.188;-0.374;2023-07-24T04:37:18;100243.41;;;20.44;68.82
48862;BME280;34681;49.188;-0.374;2023-07-24T04:39:43;100247.66;;;20.40;68.49
48862;BME280;34681;49.188;-0.374;2023-07-24T04:42:09;100257.69;;;20.41;68.55
48862;BME280;34681;49.188;-0.374;2023-07-24T04:44:34;100257.94;;;20.46;68.49
48862;BME280;34681;49.188;-0.374;2023-07-24T04:47:00;100259.13;;;20.57;68.51
48862;BME280;34681;49.188;-0.374;2023-07-24T04:49:30;100246.31;;;20.56;68.32
48862;BME280;34681;49.188;-0.374;2023-07-24T04:51:56;100249.97;;;20.50;68.01
48862;BME280;34681;49.188;-0.374;2023-07-24T04:54:21;100250.19;;;20.55;68.19
48862;BME280;34681;49.188;-0.374;2023-07-24T04:56:46;100251.38;;;20.66;68.13
48862;BME280;34681;49.188;-0.374;2023-07-24T04:59:12;100257.56;;;20.68;68.03
48862;BME280;34681;49.188;-0.374;2023-07-24T05:01:37;100259.69;;;20.72;67.81
48862;BME280;34681;49.188;-0.374;2023-07-24T05:04:03;100263.94;;;20.75;67.61
48862;BME280;34681;49.188;-0.374;2023-07-24T05:06:28;100270.06;;;20.84;67.72
48862;BME280;34681;49.188;-0.374;2023-07-24T05:08:53;100268.03;;;20.97;67.19
48862;BME280;34681;49.188;-0.374;2023-07-24T05:11:19;100267.94;;;21.11;66.95
48862;BME280;34681;49.188;-0.374;2023-07-24T05:13:44;100270.50;;;21.37;66.78
48862;BME280;34681;49.188;-0.374;2023-07-24T05:16:10;100266.13;;;21.48;66.62
48862;BME280;34681;49.188;-0.374;2023-07-24T05:18:35;100265.88;;;21.49;66.68
48862;BME280;34681;49.188;-0.374;2023-07-24T05:21:00;100270.72;;;21.79;66.12
48862;BME280;34681;49.188;-0.374;2023-07-24T05:23:26;100272.78;;;21.83;65.53
48862;BME280;34681;49.188;-0.374;2023-07-24T05:26:02;100271.56;;;21.61;66.25
48862;BME280;34681;49.188;-0.374;2023-07-24T05:28:29;100266.13;;;21.84;65.79
48862;BME280;34681;49.188;-0.374;2023-07-24T05:30:55;100268.19;;;22.44;64.13
48862;BME280;34681;49.188;-0.374;2023-07-24T05:33:21;100270.38;;;22.05;64.87
48862;BME280;34681;49.188;-0.374;2023-07-24T05:35:48;100264.19;;;21.67;65.67
48862;BME280;34681;49.188;-0.374;2023-07-24T05:38:13;100268.22;;;21.52;65.66
48862;BME280;34681;49.188;-0.374;2023-07-24T05:40:39;100262.56;;;21.59;65.86
48862;BME280;34681;49.188;-0.374;2023-07-24T05:43:04;100268.38;;;21.76;65.59
48862;BME280;34681;49.188;-0.374;2023-07-24T05:45:29;100265.38;;;21.96;65.15
48862;BME280;34681;49.188;-0.374;2023-07-24T05:47:57;100268.22;;;21.89;65.21
48862;BME280;34681;49.188;-0.374;2023-07-24T05:50:28;100271.09;;;21.82;65.49
48862;BME280;34681;49.188;-0.374;2023-07-24T05:52:54;100261.94;;;21.75;65.15
48862;BME280;34681;49.188;-0.374;2023-07-24T05:55:19;100263.50;;;21.71;65.41
48862;BME280;34681;49.188;-0.374;2023-07-24T05:57:44;100252.81;;;21.50;65.42
48862;BME280;34681;49.188;-0.374;2023-07-24T06:00:10;100256.13;;;21.40;65.68
48862;BME280;34681;49.188;-0.374;2023-07-24T06:02:35;100261.69;;;21.40;65.90
48862;BME280;34681;49.188;-0.374;2023-07-24T06:05:00;100273.91;;;21.39;65.59
48862;BME280;34681;49.188;-0.374;2023-07-24T06:07:26;100264.41;;;21.47;65.67
48862;BME280;34681;49.188;-0.374;2023-07-24T06:09:51;100265.75;;;21.63;65.19
48862;BME280;34681;49.188;-0.374;2023-07-24T06:12:16;100267.22;;;21.65;64.90
48862;BME280;34681;49.188;-0.374;2023-07-24T06:14:42;100272.25;;;21.75;64.77
48862;BME280;34681;49.188;-0.374;2023-07-24T06:17:07;100265.28;;;21.84;64.53
48862;BME280;34681;49.188;-0.374;2023-07-24T06:19:32;100274.56;;;21.78;64.02
48862;BME280;34681;49.188;-0.374;2023-07-24T06:21:58;100275.19;;;21.80;64.16
48862;BME280;34681;49.188;-0.374;2023-07-24T06:24:23;100278.28;;;21.90;63.91
48862;BME280;34681;49.188;-0.374;2023-07-24T06:26:49;100284.16;;;22.00;63.63
48862;BME280;34681;49.188;-0.374;2023-07-24T06:29:15;100293.41;;;22.19;63.37
48862;BME280;34681;49.188;-0.374;2023-07-24T06:31:40;100284.63;;;22.64;63.05
48862;BME280;34681;49.188;-0.374;2023-07-24T06:34:06;100290.34;;;22.99;61.89
48862;BME280;34681;49.188;-0.374;2023-07-24T06:36:31;100287.97;;;23.38;61.52
48862;BME280;34681;49.188;-0.374;2023-07-24T06:38:56;100284.72;;;23.76;60.79
48862;BME280;34681;49.188;-0.374;2023-07-24T06:41:22;100284.94;;;23.86;60.69
48862;BME280;34681;49.188;-0.374;2023-07-24T06:43:48;100286.03;;;23.73;59.69
48862;BME280;34681;49.188;-0.374;2023-07-24T06:46:14;100286.31;;;23.84;59.24
48862;BME280;34681;49.188;-0.374;2023-07-24T06:48:39;100284.72;;;23.76;59.05
48862;BME280;34681;49.188;-0.374;2023-07-24T06:51:05;100294.19;;;23.63;59.03
48862;BME280;34681;49.188;-0.374;2023-07-24T06:53:30;100294.88;;;23.47;59.11
48862;BME280;34681;49.188;-0.374;2023-07-24T06:55:55;100293.31;;;23.39;59.47
48862;BME280;34681;49.188;-0.374;2023-07-24T06:58:21;100289.09;;;23.72;59.37
48862;BME280;34681;49.188;-0.374;2023-07-24T07:00:46;100288.97;;;24.42;58.24
48862;BME280;34681;49.188;-0.374;2023-07-24T07:03:11;100292.22;;;24.96;56.38
48862;BME280;34681;49.188;-0.374;2023-07-24T07:05:37;100294.34;;;25.17;55.68
48862;BME280;34681;49.188;-0.374;2023-07-24T07:08:02;100296.34;;;25.39;54.94
48862;BME280;34681;49.188;-0.374;2023-07-24T07:10:27;100305.00;;;25.54;53.81
48862;BME280;34681;49.188;-0.374;2023-07-24T07:12:53;100311.66;;;26.03;53.01
48862;BME280;34681;49.188;-0.374;2023-07-24T07:15:18;100311.22;;;26.55;51.57
48862;BME280;34681;49.188;-0.374;2023-07-24T07:17:43;100314.16;;;27.14;50.61
48862;BME280;34681;49.188;-0.374;2023-07-24T07:20:09;100308.81;;;27.82;48.83
48862;BME280;34681;49.188;-0.374;2023-07-24T07:22:34;100305.63;;;27.68;48.19
48862;BME280;34681;49.188;-0.374;2023-07-24T07:25:00;100306.44;;;27.32;48.73
48862;BME280;34681;49.188;-0.374;2023-07-24T07:27:25;100308.91;;;27.28;48.63
48862;BME280;34681;49.188;-0.374;2023-07-24T07:29:50;100311.06;;;27.48;48.71
48862;BME280;34681;49.188;-0.374;2023-07-24T07:32:16;100317.28;;;27.55;48.56
48862;BME280;34681;49.188;-0.374;2023-07-24T07:34:41;100305.41;;;27.80;48.28
48862;BME280;34681;49.188;-0.374;2023-07-24T07:37:07;100309.72;;;28.45;46.90
48862;BME280;34681;49.188;-0.374;2023-07-24T07:39:32;100307.59;;;28.15;46.67
48862;BME280;34681;49.188;-0.374;2023-07-24T07:41:58;100303.56;;;27.59;47.52
48862;BME280;34681;49.188;-0.374;2023-07-24T07:44:23;100320.91;;;27.19;48.60
48862;BME280;34681;49.188;-0.374;2023-07-24T07:46:48;100320.06;;;27.50;48.10
48862;BME280;34681;49.188;-0.374;2023-07-24T07:49:14;100315.75;;;27.69;47.85
48862;BME280;34681;49.188;-0.374;2023-07-24T07:51:39;100318.44;;;28.39;47.06
48862;BME280;34681;49.188;-0.374;2023-07-24T07:54:04;100319.13;;;28.87;45.37
48862;BME280;34681;49.188;-0.374;2023-07-24T07:56:30;100307.28;;;28.64;45.73
48862;BME280;34681;49.188;-0.374;2023-07-24T07:58:55;100312.91;;;28.79;45.23
48862;BME280;34681;49.188;-0.374;2023-07-24T08:01:20;100313.00;;;29.00;44.51
48862;BME280;34681;49.188;-0.374;2023-07-24T08:03:46;100315.25;;;28.93;44.74
48862;BME280;34681;49.188;-0.374;2023-07-24T08:06:11;100297.50;;;31.52;40.16
48862;BME280;34681;49.188;-0.374;2023-07-24T08:08:37;100305.03;;;32.20;38.67
48862;BME280;34681;49.188;-0.374;2023-07-24T08:11:06;100303.16;;;30.74;40.69
48862;BME280;34681;49.188;-0.374;2023-07-24T08:13:32;100303.47;;;29.62;42.37
48862;BME280;34681;49.188;-0.374;2023-07-24T08:15:57;100299.50;;;29.43;42.89
48862;BME280;34681;49.188;-0.374;2023-07-24T08:18:24;100293.84;;;28.92;43.65
48862;BME280;34681;49.188;-0.374;2023-07-24T08:20:50;100297.09;;;28.58;44.49
48862;BME280;34681;49.188;-0.374;2023-07-24T08:23:15;100291.94;;;27.82;45.96
48862;BME280;34681;49.188;-0.374;2023-07-24T08:25:50;100293.03;;;27.12;47.24
48862;BME280;34681;49.188;-0.374;2023-07-24T08:28:16;100299.97;;;26.77;47.90
48862;BME280;34681;49.188;-0.374;2023-07-24T08:30:41;100300.84;;;27.05;47.84
48862;BME280;34681;49.188;-0.374;2023-07-24T08:33:06;100298.78;;;27.59;46.80
48862;BME280;34681;49.188;-0.374;2023-07-24T08:35:32;100306.19;;;28.80;44.91
48862;BME280;34681;49.188;-0.374;2023-07-24T08:37:57;100306.31;;;28.33;45.23
48862;BME280;34681;49.188;-0.374;2023-07-24T08:40:23;100307.34;;;28.22;45.62
48862;BME280;34681;49.188;-0.374;2023-07-24T08:42:49;100302.22;;;28.87;44.61
48862;BME280;34681;49.188;-0.374;2023-07-24T08:45:16;100303.78;;;29.55;43.35
48862;BME280;34681;49.188;-0.374;2023-07-24T08:47:42;100306.84;;;29.64;42.88
48862;BME280;34681;49.188;-0.374;2023-07-24T08:50:09;100296.09;;;29.00;43.73
48862;BME280;34681;49.188;-0.374;2023-07-24T08:52:37;100297.94;;;28.48;44.62
48862;BME280;34681;49.188;-0.374;2023-07-24T08:55:04;100304.47;;;28.12;45.33
48862;BME280;34681;49.188;-0.374;2023-07-24T08:57:30;100298.97;;;27.85;45.65
48862;BME280;34681;49.188;-0.374;2023-07-24T08:59:55;100299.84;;;27.53;46.73
48862;BME280;34681;49.188;-0.374;2023-07-24T09:02:20;100299.66;;;27.28;47.25
48862;BME280;34681;49.188;-0.374;2023-07-24T09:04:46;100301.63;;;27.00;47.91
48862;BME280;34681;49.188;-0.374;2023-07-24T09:07:11;100294.25;;;26.94;47.88
48862;BME280;34681;49.188;-0.374;2023-07-24T09:09:37;100300.19;;;27.25;47.86
48862;BME280;34681;49.188;-0.374;2023-07-24T09:12:02;100299.69;;;27.33;47.74
48862;BME280;34681;49.188;-0.374;2023-07-24T09:14:28;100301.81;;;27.21;47.70
48862;BME280;34681;49.188;-0.374;2023-07-24T09:17:08;100298.31;;;27.03;48.42
48862;BME280;34681;49.188;-0.374;2023-07-24T09:19:34;100284.66;;;26.63;49.11
48862;BME280;34681;49.188;-0.374;2023-07-24T09:22:15;100297.41;;;26.27;49.66
48862;BME280;34681;49.188;-0.374;2023-07-24T09:24:51;100301.28;;;25.82;50.30
48862;BME280;34681;49.188;-0.374;2023-07-24T09:27:17;100297.44;;;25.88;50.45
48862;BME280;34681;49.188;-0.374;2023-07-24T09:29:43;100301.16;;;26.38;49.76
48862;BME280;34681;49.188;-0.374;2023-07-24T09:32:21;100310.75;;;27.12;48.28
48862;BME280;34681;49.188;-0.374;2023-07-24T09:34:48;100304.25;;;27.76;46.83
48862;BME280;34681;49.188;-0.374;2023-07-24T09:37:23;100304.50;;;28.17;45.46
48862;BME280;34681;49.188;-0.374;2023-07-24T09:39:49;100302.97;;;28.46;45.34
48862;BME280;34681;49.188;-0.374;2023-07-24T09:42:14;100317.19;;;34.78;37.06
48862;BME280;34681;49.188;-0.374;2023-07-24T09:44:39;100302.56;;;40.96;27.07
48862;BME280;34681;49.188;-0.374;2023-07-24T09:47:05;100311.16;;;42.08;25.00
48862;BME280;34681;49.188;-0.374;2023-07-24T09:49:31;100294.88;;;39.57;26.58
48862;BME280;34681;49.188;-0.374;2023-07-24T09:51:58;100302.63;;;42.75;24.22
48862;BME280;34681;49.188;-0.374;2023-07-24T09:54:30;100296.97;;;43.33;23.04
48862;BME280;34681;49.188;-0.374;2023-07-24T09:56:57;100301.75;;;40.72;24.90
48862;BME280;34681;49.188;-0.374;2023-07-24T09:59:24;100298.53;;;36.20;29.95
48862;BME280;34681;49.188;-0.374;2023-07-24T10:01:52;100291.78;;;33.71;33.54
48862;BME280;34681;49.188;-0.374;2023-07-24T10:04:18;100288.38;;;32.85;35.02
48862;BME280;34681;49.188;-0.374;2023-07-24T10:06:44;100294.63;;;33.01;35.21
48862;BME280;34681;49.188;-0.374;2023-07-24T10:09:11;100297.03;;;32.03;36.25
48862;BME280;34681;49.188;-0.374;2023-07-24T10:11:36;100296.13;;;31.11;37.98
48862;BME280;34681;49.188;-0.374;2023-07-24T10:14:02;100294.84;;;30.33;38.97
48862;BME280;34681;49.188;-0.374;2023-07-24T10:16:27;100304.00;;;29.28;41.15
48862;BME280;34681;49.188;-0.374;2023-07-24T10:18:53;100295.00;;;29.26;41.67
48862;BME280;34681;49.188;-0.374;2023-07-24T10:21:26;100297.84;;;29.57;41.58
48862;BME280;34681;49.188;-0.374;2023-07-24T10:23:51;100291.91;;;29.18;41.58
48862;BME280;34681;49.188;-0.374;2023-07-24T10:26:24;100297.16;;;28.83;42.28
48862;BME280;34681;49.188;-0.374;2023-07-24T10:28:50;100281.88;;;28.39;43.18
48862;BME280;34681;49.188;-0.374;2023-07-24T10:31:21;100283.97;;;28.16;43.70
48862;BME280;34681;49.188;-0.374;2023-07-24T10:33:47;100293.50;;;28.10;44.22
48862;BME280;34681;49.188;-0.374;2023-07-24T10:36:16;100282.84;;;28.17;44.00
48862;BME280;34681;49.188;-0.374;2023-07-24T10:38:44;100286.06;;;28.31;44.00
48862;BME280;34681;49.188;-0.374;2023-07-24T10:41:10;100295.06;;;28.33;43.59
48862;BME280;34681;49.188;-0.374;2023-07-24T10:43:47;100299.47;;;28.24;43.41
48862;BME280;34681;49.188;-0.374;2023-07-24T10:46:14;100294.88;;;28.03;43.95
48862;BME280;34681;49.188;-0.374;2023-07-24T10:48:44;100296.56;;;28.56;43.14
48862;BME280;34681;49.188;-0.374;2023-07-24T10:51:10;100306.47;;;28.84;43.01
48862;BME280;34681;49.188;-0.374;2023-07-24T10:53:37;100302.75;;;28.58;43.39
48862;BME280;34681;49.188;-0.374;2023-07-24T10:56:06;100302.81;;;28.16;43.80
48862;BME280;34681;49.188;-0.374;2023-07-24T10:58:32;100304.97;;;27.98;44.39
48862;BME280;34681;49.188;-0.374;2023-07-24T11:00:57;100304.50;;;27.69;44.54
48862;BME280;34681;49.188;-0.374;2023-07-24T11:03:24;100304.00;;;27.46;44.80
48862;BME280;34681;49.188;-0.374;2023-07-24T11:05:50;100298.81;;;27.64;44.61
48862;BME280;34681;49.188;-0.374;2023-07-24T11:08:17;100304.13;;;27.98;44.33
48862;BME280;34681;49.188;-0.374;2023-07-24T11:10:47;100301.00;;;27.94;44.63
48862;BME280;34681;49.188;-0.374;2023-07-24T11:13:14;100307.13;;;27.86;44.89
48862;BME280;34681;49.188;-0.374;2023-07-24T11:15:39;100309.81;;;28.08;44.88
48862;BME280;34681;49.188;-0.374;2023-07-24T11:18:05;100309.09;;;27.86;44.92
48862;BME280;34681;49.188;-0.374;2023-07-24T11:20:45;100316.47;;;27.92;44.56
48862;BME280;34681;49.188;-0.374;2023-07-24T11:23:12;100317.13;;;28.09;44.56
48862;BME280;34681;49.188;-0.374;2023-07-24T11:25:38;100315.63;;;27.96;44.12
48862;BME280;34681;49.188;-0.374;2023-07-24T11:28:07;100318.03;;;27.78;44.69
48862;BME280;34681;49.188;-0.374;2023-07-24T11:30:34;100320.25;;;27.70;44.63
48862;BME280;34681;49.188;-0.374;2023-07-24T11:33:02;100329.34;;;27.88;44.71
48862;BME280;34681;49.188;-0.374;2023-07-24T11:35:28;100320.28;;;28.23;43.90
48862;BME280;34681;49.188;-0.374;2023-07-24T11:37:53;100315.09;;;28.52;43.33
48862;BME280;34681;49.188;-0.374;2023-07-24T11:40:19;100311.59;;;28.92;42.65
48862;BME280;34681;49.188;-0.374;2023-07-24T11:42:47;100315.03;;;29.30;41.91
48862;BME280;34681;49.188;-0.374;2023-07-24T11:45:13;100320.38;;;29.52;42.20
48862;BME280;34681;49.188;-0.374;2023-07-24T11:47:43;100330.22;;;29.39;42.34
48862;BME280;34681;49.188;-0.374;2023-07-24T11:50:09;100333.25;;;28.92;42.35
48862;BME280;34681;49.188;-0.374;2023-07-24T11:52:39;100322.09;;;28.39;43.65
48862;BME280;34681;49.188;-0.374;2023-07-24T11:55:06;100338.81;;;27.39;46.00
48862;BME280;34681;49.188;-0.374;2023-07-24T11:57:32;100341.16;;;27.21;47.48
48862;BME280;34681;49.188;-0.374;2023-07-24T11:59:57;100322.38;;;27.26;47.30
48862;BME280;34681;49.188;-0.374;2023-07-24T12:02:26;100327.94;;;26.67;48.35
48862;BME280;34681;49.188;-0.374;2023-07-24T12:04:56;100334.69;;;27.20;48.01
48862;BME280;34681;49.188;-0.374;2023-07-24T12:07:33;100327.28;;;27.09;47.60
48862;BME280;34681;49.188;-0.374;2023-07-24T12:10:03;100340.50;;;27.40;47.02
48862;BME280;34681;49.188;-0.374;2023-07-24T12:12:43;100334.56;;;27.69;46.78
48862;BME280;34681;49.188;-0.374;2023-07-24T12:15:09;100336.25;;;27.38;46.68
48862;BME280;34681;49.188;-0.374;2023-07-24T12:17:35;100325.88;;;26.84;47.26
48862;BME280;34681;49.188;-0.374;2023-07-24T12:20:00;100335.31;;;26.73;47.31
48862;BME280;34681;49.188;-0.374;2023-07-24T12:22:26;100330.16;;;26.43;48.35
48862;BME280;34681;49.188;-0.374;2023-07-24T12:24:51;100341.88;;;26.18;48.99
48862;BME280;34681;49.188;-0.374;2023-07-24T12:27:16;100333.88;;;26.49;49.00
48862;BME280;34681;49.188;-0.374;2023-07-24T12:29:42;100335.81;;;26.97;48.09
48862;BME280;34681;49.188;-0.374;2023-07-24T12:32:07;100335.75;;;27.14;47.32
48862;BME280;34681;49.188;-0.374;2023-07-24T12:34:33;100339.09;;;26.62;47.22
48862;BME280;34681;49.188;-0.374;2023-07-24T12:36:58;100327.31;;;26.21;48.66
48862;BME280;34681;49.188;-0.374;2023-07-24T12:39:23;100338.78;;;26.20;48.37